.
WxDataArchive / Data Records for 2013-09-03
2013-09-02 September 2013 2013-09-04

Data Records for Tuesday, 03 September 2013

Time	Temp	Chill	HIndex	Humid	Dewpt	 Wind 	HiWind	WindDir	Rain 	Barom 
-----	----	-----	------	-----	-----	------	------	-------	-----	----- 
00:00	60.2	60.2	60.2	78	53.3	1	3	315	0.00	29.926 
00:05	60.1	60.1	60.1	78	53.2	1	3	315	0.00	29.926 
00:10	59.9	59.9	59.9	78	53.0	0	2	315	0.00	29.926 
00:15	59.8	59.8	59.8	79	53.3	0	2	315	0.00	29.926 
00:20	59.6	59.6	59.6	80	53.4	1	4	315	0.00	29.926 
00:25	59.5	59.5	59.5	80	53.3	0	2	315	0.00	29.926 
00:30	59.3	59.3	59.3	80	53.1	0	3	315	0.00	29.929 
00:35	59.2	59.2	59.2	80	53.0	0	2	315	0.00	29.929 
00:40	58.9	58.9	58.9	80	52.7	0	2	315	0.00	29.929 
00:45	58.7	58.7	58.7	80	52.5	0	1	315	0.00	29.927 
00:50	58.6	58.6	58.6	80	52.4	0	2	315	0.00	29.927 
00:55	58.4	58.4	58.4	80	52.3	1	3	315	0.00	29.927 
01:00	58.3	58.3	58.3	80	52.2	0	2	315	0.00	29.928 
01:05	58.1	58.1	58.1	80	52.0	0	1	315	0.00	29.928 
01:10	58.0	58.0	58.0	80	51.9	0	2	315	0.00	29.928 
01:15	57.8	57.8	57.8	80	51.7	0	2	315	0.00	29.930 
01:20	57.6	57.6	57.6	80	51.5	0	1	315	0.00	29.930 
01:25	57.5	57.5	57.5	81	51.7	0	1	315	0.00	29.930 
01:30	57.3	57.3	57.3	81	51.5	0	1	315	0.00	29.933 
01:35	57.2	57.2	57.2	81	51.4	0	1	315	0.00	29.933 
01:40	57.0	57.0	57.0	81	51.2	0	1	315	0.00	29.933 
01:45	57.0	57.0	57.0	81	51.2	0	1	315	0.00	29.935 
01:50	56.9	56.9	56.9	81	51.1	0	1	315	0.00	29.935 
01:55	56.9	56.9	56.9	81	51.1	0	1	315	0.00	29.935 
02:00	57.0	57.0	57.0	81	51.2	0	1	315	0.00	29.933 
02:05	57.2	57.2	57.2	81	51.4	0	2	315	0.00	29.933 
02:10	57.3	57.3	57.3	80	51.2	0	1	315	0.00	29.933 
02:15	57.3	57.3	57.3	80	51.2	0	1	315	0.00	29.937 
02:20	57.3	57.3	57.3	80	51.2	0	1	315	0.00	29.937 
02:25	57.5	57.5	57.5	80	51.4	0	2	315	0.00	29.937 
02:30	57.5	57.5	57.5	79	51.0	0	1	315	0.00	29.934 
02:35	57.6	57.6	57.6	78	50.8	0	2	315	0.00	29.934 
02:40	57.8	57.8	57.8	78	51.0	0	1	315	0.00	29.934 
02:45	58.0	58.0	58.0	77	50.8	1	4	315	0.00	29.929 
02:50	58.1	58.1	58.1	76	50.6	0	5	315	0.00	29.929 
02:55	58.3	58.3	58.3	75	50.4	0	1	315	0.00	29.929 
03:00	58.3	58.3	58.3	74	50.0	1	6	315	0.00	29.936 
03:05	58.4	58.4	58.4	73	49.8	1	3	315	0.00	29.936 
03:10	58.6	58.6	58.6	72	49.6	1	4	315	0.00	29.936 
03:15	58.7	58.7	58.7	72	49.7	1	3	315	0.00	29.939 
03:20	58.9	58.9	58.9	71	49.5	0	3	315	0.00	29.939 
03:25	58.9	58.9	58.9	71	49.5	0	2	315	0.00	29.939 
03:30	58.9	58.9	58.9	71	49.5	0	1	315	0.00	29.940 
03:35	58.9	58.9	58.9	71	49.5	0	1	315	0.00	29.940 
03:40	58.9	58.9	58.9	71	49.5	0	1	315	0.00	29.940 
03:45	58.9	58.9	58.9	72	49.9	0	1	315	0.00	29.941 
03:50	58.9	58.9	58.9	71	49.5	0	1	315	0.00	29.941 
03:55	58.9	58.9	58.9	71	49.5	0	1	315	0.00	29.941 
04:00	58.7	58.7	58.7	71	49.3	0	0	---	0.00	29.943 
04:05	58.4	58.4	58.4	72	49.4	0	1	315	0.00	29.943 
04:10	58.4	58.4	58.4	73	49.8	0	0	---	0.00	29.943 
04:15	58.4	58.4	58.4	73	49.8	0	0	---	0.00	29.951 
04:20	58.4	58.4	58.4	73	49.8	0	1	315	0.00	29.951 
04:25	58.4	58.4	58.4	73	49.8	0	0	---	0.00	29.951 
04:30	58.4	58.4	58.4	73	49.8	0	0	---	0.00	29.957 
04:35	58.4	58.4	58.4	73	49.8	0	2	315	0.00	29.957 
04:40	58.6	58.6	58.6	72	49.6	0	1	292	0.00	29.957 
04:45	58.7	58.7	58.7	72	49.7	0	0	---	0.00	29.955 
04:50	58.6	58.6	58.6	72	49.6	0	1	292	0.00	29.955 
04:55	58.6	58.6	58.6	72	49.6	0	1	292	0.00	29.955 
05:00	58.6	58.6	58.6	72	49.6	0	0	---	0.00	29.951 
05:05	58.6	58.6	58.6	72	49.6	0	0	---	0.00	29.951 
05:10	58.6	58.6	58.6	72	49.6	0	1	292	0.00	29.951 
05:15	58.7	58.7	58.7	71	49.3	0	1	292	0.00	29.955 
05:20	58.7	58.7	58.7	71	49.3	0	1	292	0.00	29.955 
05:25	58.7	58.7	58.7	71	49.3	0	1	292	0.00	29.955 
05:30	58.9	58.9	58.9	71	49.5	0	1	292	0.00	29.956 
05:35	58.9	58.9	58.9	70	49.1	0	1	292	0.00	29.956 
05:40	58.9	58.9	58.9	70	49.1	0	1	292	0.00	29.956 
05:45	59.0	59.0	59.0	70	49.2	0	1	292	0.00	29.958 
05:50	59.0	59.0	59.0	68	48.5	1	3	292	0.00	29.958 
05:55	59.2	59.2	59.2	68	48.6	0	2	315	0.00	29.958 
06:00	59.2	59.2	59.2	68	48.6	0	1	315	0.00	29.961 
06:05	59.2	59.2	59.2	68	48.6	0	1	315	0.00	29.961 
06:10	59.2	59.2	59.2	68	48.6	1	5	315	0.00	29.961 
06:15	59.3	59.3	59.3	68	48.7	0	3	315	0.00	29.968 
06:20	59.3	59.3	59.3	69	49.1	0	0	---	0.00	29.968 
06:25	59.3	59.3	59.3	69	49.1	0	1	315	0.00	29.968 
06:30	59.2	59.2	59.2	70	49.4	0	1	315	0.00	29.976 
06:35	59.2	59.2	59.2	70	49.4	0	0	---	0.00	29.976 
06:40	59.0	59.0	59.0	69	48.8	0	1	315	0.00	29.976 
06:45	59.0	59.0	59.0	69	48.8	0	1	315	0.00	29.978 
06:50	59.0	59.0	59.0	69	48.8	0	1	315	0.00	29.978 
06:55	59.0	59.0	59.0	68	48.5	0	1	315	0.00	29.978 
07:00	59.0	59.0	59.0	68	48.5	0	2	315	0.00	29.987 
07:05	59.0	59.0	59.0	68	48.5	0	0	---	0.00	29.987 
07:10	59.0	59.0	59.0	68	48.5	0	0	---	0.00	29.987 
07:15	59.0	59.0	59.0	68	48.5	0	0	---	0.00	29.994 
07:20	59.0	59.0	59.0	68	48.5	0	0	---	0.00	29.994 
07:25	59.2	59.2	59.2	67	48.2	0	1	315	0.00	29.994 
07:30	59.2	59.2	59.2	67	48.2	0	1	315	0.00	29.997 
07:35	59.3	59.3	59.3	67	48.3	0	1	315	0.00	29.997 
07:40	59.3	59.3	59.3	67	48.3	0	1	315	0.00	29.997 
07:45	59.3	59.3	59.3	68	48.7	0	0	---	0.00	30.003 
07:50	59.5	59.5	59.5	67	48.5	0	1	315	0.00	30.003 
07:55	59.5	59.5	59.5	67	48.5	0	1	315	0.00	30.003 
08:00	59.6	59.6	59.6	67	48.6	0	2	315	0.00	30.002 
08:05	59.8	59.8	59.8	68	49.2	0	2	315	0.00	30.002 
08:10	59.8	59.8	59.8	67	48.8	0	3	315	0.00	30.002 
08:15	59.9	59.9	59.9	67	48.9	0	1	315	0.00	30.013 
08:20	60.1	60.1	60.1	67	49.1	0	2	315	0.00	30.013 
08:25	60.2	60.2	60.2	67	49.2	0	1	315	0.00	30.013 
08:30	60.4	60.4	60.4	67	49.4	0	1	315	0.00	30.014 
08:35	60.5	60.5	60.5	67	49.5	0	2	315	0.00	30.014 
08:40	60.7	60.7	60.7	67	49.7	0	1	202	0.00	30.014 
08:45	60.7	60.7	60.7	67	49.7	0	2	225	0.00	30.016 
08:50	60.5	60.5	60.5	68	49.9	0	2	225	0.00	30.016 
08:55	60.4	60.4	60.4	69	50.2	0	1	225	0.00	30.016 
09:00	60.5	60.5	60.5	69	50.3	0	1	225	0.00	30.017 
09:05	60.5	60.5	60.5	70	50.7	0	1	225	0.00	30.017 
09:10	60.7	60.7	60.7	69	50.5	0	2	225	0.00	30.017 
09:15	60.9	60.9	60.9	69	50.7	0	2	248	0.00	30.019 
09:20	60.9	60.9	60.9	69	50.7	1	3	248	0.00	30.019 
09:25	61.0	61.0	61.0	69	50.8	0	2	248	0.00	30.019 
09:30	61.0	61.0	61.0	69	50.8	1	3	248	0.00	30.025 
09:35	61.0	61.0	61.0	69	50.8	0	1	248	0.00	30.025 
09:40	61.3	61.3	61.3	69	51.0	0	2	248	0.00	30.025 
09:45	61.3	61.3	61.3	69	51.0	0	2	248	0.00	30.028 
09:50	61.8	61.8	61.8	68	51.1	0	2	248	0.00	30.028 
09:55	62.4	62.4	62.4	69	52.1	0	1	248	0.00	30.028 
10:00	62.9	62.9	62.9	66	51.4	1	6	135	0.00	30.027 
10:05	63.1	63.1	63.1	66	51.6	1	5	135	0.00	30.027 
10:10	63.4	63.4	63.4	66	51.8	1	3	135	0.00	30.027 
10:15	63.9	63.9	63.9	66	52.3	1	2	135	0.00	30.026 
10:20	64.2	64.2	64.2	63	51.3	1	5	315	0.00	30.026 
10:25	64.3	64.3	64.3	62	51.0	1	4	0	0.00	30.026 
10:30	64.8	64.8	64.8	62	51.5	1	3	315	0.00	30.028 
10:35	65.6	65.6	65.6	61	51.8	1	6	315	0.00	30.028 
10:40	66.3	66.3	66.3	61	52.4	1	5	22	0.00	30.028 
10:45	66.8	66.8	66.8	58	51.5	1	4	0	0.00	30.029 
10:50	66.8	66.8	66.8	58	51.5	1	3	0	0.00	30.029 
10:55	66.6	66.6	66.6	58	51.4	2	4	0	0.00	30.029 
11:00	66.6	66.6	66.6	59	51.8	2	5	292	0.00	30.030 
11:05	66.4	66.4	66.4	58	51.2	2	6	338	0.00	30.030 
11:10	66.6	66.6	66.6	61	52.7	1	4	338	0.00	30.030 
11:15	67.3	67.3	67.3	57	51.5	2	6	0	0.00	30.032 
11:20	67.8	67.8	67.8	57	52.0	1	4	270	0.00	30.032 
11:25	68.1	68.1	68.1	57	52.3	1	4	270	0.00	30.032 
11:30	68.8	68.8	68.8	55	52.0	1	4	135	0.00	30.032 
11:35	67.8	67.8	67.8	56	51.5	2	4	315	0.00	30.032 
11:40	67.4	67.4	67.4	58	52.1	1	4	315	0.00	30.032 
11:45	67.4	67.4	67.4	57	51.6	2	5	315	0.00	30.034 
11:50	68.3	68.3	68.3	58	52.9	1	3	315	0.00	30.034 
11:55	69.1	69.1	69.1	55	52.2	1	4	292	0.00	30.034 
12:00	69.8	69.8	69.8	55	52.9	1	5	135	0.00	30.027 
12:05	70.1	70.1	70.1	53	52.2	2	4	338	0.00	30.027 
12:10	69.9	69.9	69.9	53	52.0	1	3	315	0.00	30.027 
12:15	70.1	70.1	70.1	54	52.7	1	3	315	0.00	30.029 
12:20	70.4	70.4	70.4	52	51.9	2	6	315	0.00	30.029 
12:25	70.1	70.1	70.1	54	52.7	2	5	315	0.00	30.029 
12:30	70.6	70.6	70.6	52	52.1	2	4	315	0.00	30.029 
12:35	70.9	70.9	70.9	53	52.9	1	4	338	0.00	30.029 
12:40	71.5	71.5	71.5	51	52.4	2	4	0	0.00	30.029 
12:45	71.5	71.5	71.5	51	52.4	1	3	315	0.00	30.025 
12:50	71.5	71.5	71.5	52	52.9	2	4	338	0.00	30.025 
12:55	71.8	71.8	71.8	51	52.7	2	5	315	0.00	30.025 
13:00	72.1	72.1	72.1	50	52.4	2	4	292	0.00	30.026 
13:05	72.0	72.0	72.0	50	52.3	2	5	292	0.00	30.026 
13:10	72.7	72.7	72.7	52	54.0	1	4	248	0.00	30.026 
13:15	72.1	72.1	72.1	51	53.0	3	6	315	0.00	30.029 
13:20	72.1	72.1	72.1	50	52.4	2	6	270	0.00	30.029 
13:25	72.5	72.5	72.5	50	52.8	1	5	315	0.00	30.029 
13:30	72.5	72.5	72.5	49	52.2	2	5	338	0.00	30.026 
13:35	72.5	72.5	72.5	50	52.8	1	3	292	0.00	30.026 
13:40	72.7	72.7	72.7	51	53.5	1	5	338	0.00	30.026 
13:45	72.8	72.8	72.8	50	53.1	2	5	292	0.00	30.022 
13:50	73.2	73.2	73.2	50	53.4	1	3	0	0.00	30.022 
13:55	73.7	73.7	73.7	48	52.8	1	4	0	0.00	30.022 
14:00	73.3	73.3	73.3	50	53.5	1	3	90	0.00	30.022 
14:05	73.3	73.3	73.3	48	52.4	2	4	292	0.00	30.022 
14:10	72.5	72.5	72.5	49	52.2	2	5	292	0.00	30.022 
14:15	72.8	72.8	72.8	50	53.1	2	4	292	0.00	30.014 
14:20	73.5	73.5	73.5	48	52.6	2	5	292	0.00	30.014 
14:25	73.9	73.9	73.9	48	53.0	1	3	270	0.00	30.014 
14:30	73.7	73.7	73.7	48	52.8	2	5	270	0.00	30.016 
14:35	73.7	73.7	73.7	48	52.8	1	4	315	0.00	30.016 
14:40	73.2	73.2	73.2	48	52.3	1	4	292	0.00	30.016 
14:45	73.9	73.9	73.9	49	53.5	1	3	292	0.00	30.019 
14:50	73.7	73.7	73.7	48	52.8	1	5	292	0.00	30.019 
14:55	73.2	73.2	73.2	50	53.4	1	3	292	0.00	30.019 
15:00	73.9	73.9	73.9	47	52.4	1	3	292	0.00	30.010 
15:05	74.6	74.6	74.6	47	53.0	2	5	338	0.00	30.010 
15:10	75.3	75.3	77.7	47	53.7	1	4	292	0.00	30.010 
15:15	75.4	75.4	77.8	46	53.2	1	3	292	0.00	29.998 
15:20	75.1	75.1	77.7	46	52.9	1	5	112	0.00	29.998 
15:25	75.1	75.1	77.7	49	54.6	1	4	0	0.00	29.998 
15:30	75.4	75.4	77.7	44	52.0	2	4	338	0.00	29.994 
15:35	75.4	75.4	77.8	46	53.2	1	3	315	0.00	29.994 
15:40	75.6	75.6	77.8	44	52.1	1	3	315	0.00	29.994 
15:45	75.8	75.8	77.9	45	52.9	0	2	315	0.00	29.992 
15:50	75.8	75.8	77.9	44	52.3	0	2	315	0.00	29.992 
15:55	75.8	75.8	77.9	44	52.3	1	3	315	0.00	29.992 
16:00	76.1	76.1	78.0	44	52.6	1	4	315	0.00	29.981 
16:05	76.8	76.8	78.3	43	52.6	1	4	270	0.00	29.981 
16:10	76.7	76.7	78.3	44	53.1	3	6	270	0.00	29.981 
16:15	76.1	76.1	78.0	45	53.2	1	5	315	0.00	29.979 
16:20	75.8	75.8	77.8	43	51.7	1	4	338	0.00	29.979 
16:25	75.6	75.6	77.8	46	53.3	0	2	338	0.00	29.979 
16:30	75.8	75.8	77.8	43	51.7	1	4	292	0.00	29.979 
16:35	75.6	75.6	77.8	44	52.1	1	3	292	0.00	29.979 
16:40	75.8	75.8	77.8	43	51.7	2	5	270	0.00	29.979 
16:45	75.8	75.8	77.9	44	52.3	2	4	315	0.00	29.978 
16:50	75.8	75.8	77.9	45	52.9	1	4	315	0.00	29.978 
16:55	75.8	75.8	77.9	45	52.9	1	5	315	0.00	29.978 
17:00	76.0	76.0	77.9	43	51.9	1	4	292	0.00	29.978 
17:05	76.1	76.1	78.0	43	52.0	1	3	292	0.00	29.978 
17:10	76.3	76.3	78.0	43	52.1	2	4	292	0.00	29.978 
17:15	76.3	76.3	78.0	43	52.1	1	3	292	0.00	29.980 
17:20	76.5	76.5	78.1	41	51.0	1	3	292	0.00	29.980 
17:25	76.5	76.5	78.1	41	51.0	1	4	292	0.00	29.980 
17:30	76.0	76.0	77.9	42	51.2	1	4	292	0.00	29.983 
17:35	76.0	76.0	78.0	44	52.5	1	3	292	0.00	29.983 
17:40	76.0	76.0	77.9	43	51.9	0	2	292	0.00	29.983 
17:45	76.1	76.1	78.0	43	52.0	1	3	292	0.00	29.985 
17:50	76.5	76.5	78.1	43	52.3	0	1	292	0.00	29.985 
17:55	76.8	76.8	78.2	42	51.9	0	2	292	0.00	29.985 
18:00	76.8	76.8	78.2	42	51.9	1	3	292	0.00	29.979 
18:05	76.5	76.5	78.1	43	52.3	1	4	292	0.00	29.979 
18:10	76.1	76.1	78.0	43	52.0	1	5	292	0.00	29.979 
18:15	75.8	75.8	77.8	43	51.7	1	3	338	0.00	29.980 
18:20	75.6	75.6	77.8	43	51.5	1	3	338	0.00	29.980 
18:25	75.4	75.4	77.7	43	51.3	1	4	338	0.00	29.980 
18:30	75.4	75.4	77.7	43	51.3	0	2	338	0.00	29.983 
18:35	75.4	75.4	77.7	44	52.0	0	2	338	0.00	29.983 
18:40	75.4	75.4	77.7	45	52.6	0	1	338	0.00	29.983 
18:45	75.4	75.4	77.7	44	52.0	0	1	338	0.00	29.986 
18:50	75.4	75.4	77.7	44	52.0	1	3	338	0.00	29.986 
18:55	75.3	75.3	77.7	44	51.9	1	4	270	0.00	29.986 
19:00	74.9	74.9	74.9	44	51.5	1	2	270	0.00	29.983 
19:05	74.7	74.7	74.7	45	51.9	1	3	270	0.00	29.983 
19:10	74.6	74.6	74.6	45	51.8	0	1	270	0.00	29.983 
19:15	74.4	74.4	74.4	45	51.7	0	1	270	0.00	29.987 
19:20	74.4	74.4	74.4	46	52.3	0	1	270	0.00	29.987 
19:25	74.2	74.2	74.2	46	52.1	0	2	270	0.00	29.987 
19:30	73.9	73.9	73.9	46	51.8	0	1	270	0.00	29.990 
19:35	73.7	73.7	73.7	46	51.6	0	1	270	0.00	29.990 
19:40	73.5	73.5	73.5	47	52.0	0	1	270	0.00	29.990 
19:45	73.2	73.2	73.2	50	53.4	0	1	270	0.00	29.994 
19:50	72.8	72.8	72.8	51	53.6	0	2	270	0.00	29.994 
19:55	72.5	72.5	72.5	52	53.9	0	3	270	0.00	29.994 
20:00	72.1	72.1	72.1	53	54.0	0	1	270	0.00	29.995 
20:05	71.8	71.8	71.8	54	54.2	0	1	270	0.00	29.995 
20:10	71.5	71.5	71.5	55	54.5	0	1	270	0.00	29.995 
20:15	71.1	71.1	71.1	56	54.6	0	1	270	0.00	30.000 
20:20	70.8	70.8	70.8	56	54.3	0	1	270	0.00	30.000 
20:25	70.6	70.6	70.6	57	54.6	0	1	270	0.00	30.000 
20:30	70.3	70.3	70.3	57	54.3	0	1	270	0.00	30.008 
20:35	70.1	70.1	70.1	58	54.6	0	1	270	0.00	30.008 
20:40	69.9	69.9	69.9	58	54.4	0	1	270	0.00	30.008 
20:45	69.6	69.6	69.6	59	54.6	0	1	270	0.00	30.010 
20:50	69.4	69.4	69.4	59	54.4	0	1	270	0.00	30.010 
20:55	69.3	69.3	69.3	60	54.8	0	1	270	0.00	30.010 
21:00	69.1	69.1	69.1	60	54.6	0	1	270	0.00	30.012 
21:05	68.9	68.9	68.9	60	54.4	0	1	270	0.00	30.012 
21:10	68.6	68.6	68.6	61	54.6	0	1	270	0.00	30.012 
21:15	68.6	68.6	68.6	61	54.6	0	1	270	0.00	30.012 
21:20	68.3	68.3	68.3	61	54.3	0	1	270	0.00	30.012 
21:25	68.1	68.1	68.1	62	54.6	0	1	270	0.00	30.012 
21:30	67.9	67.9	67.9	62	54.4	0	1	270	0.00	30.018 
21:35	67.8	67.8	67.8	62	54.3	0	1	270	0.00	30.018 
21:40	67.6	67.6	67.6	63	54.5	0	1	270	0.00	30.018 
21:45	67.4	67.4	67.4	63	54.4	0	1	270	0.00	30.020 
21:50	67.3	67.3	67.3	63	54.3	0	1	270	0.00	30.020 
21:55	67.1	67.1	67.1	64	54.5	0	2	270	0.00	30.020 
22:00	66.9	66.9	66.9	64	54.3	0	1	270	0.00	30.020 
22:05	66.8	66.8	66.8	64	54.2	0	1	270	0.00	30.020 
22:10	66.8	66.8	66.8	64	54.2	0	1	270	0.00	30.020 
22:15	66.6	66.6	66.6	65	54.5	0	1	270	0.00	30.021 
22:20	66.4	66.4	66.4	65	54.3	0	1	270	0.00	30.021 
22:25	66.3	66.3	66.3	65	54.2	0	1	270	0.00	30.021 
22:30	66.1	66.1	66.1	66	54.4	0	1	270	0.00	30.023 
22:35	66.0	66.0	66.0	67	54.7	0	1	270	0.00	30.023 
22:40	65.8	65.8	65.8	67	54.5	0	1	270	0.00	30.023 
22:45	65.6	65.6	65.6	68	54.7	0	1	270	0.00	30.024 
22:50	65.5	65.5	65.5	68	54.7	0	1	270	0.00	30.024 
22:55	65.3	65.3	65.3	69	54.9	0	1	270	0.00	30.024 
23:00	65.2	65.2	65.2	69	54.8	0	1	270	0.00	30.026 
23:05	65.0	65.0	65.0	70	55.0	0	1	270	0.00	30.026 
23:10	65.0	65.0	65.0	71	55.4	0	1	270	0.00	30.026 
23:15	64.7	64.7	64.7	71	55.1	0	0	---	0.00	30.027 
23:20	64.5	64.5	64.5	72	55.3	0	1	270	0.00	30.027 
23:25	64.3	64.3	64.3	73	55.5	0	0	---	0.00	30.027 
23:30	64.0	64.0	64.0	73	55.2	0	0	---	0.00	30.025 
23:35	63.7	63.7	63.7	74	55.3	0	0	---	0.00	30.025 
23:40	63.5	63.5	63.5	74	55.1	0	0	---	0.00	30.025 
23:45	63.2	63.2	63.2	75	55.1	0	0	---	0.00	30.027 
23:50	63.1	63.1	63.1	75	55.0	0	0	---	0.00	30.027 
23:55	62.9	62.9	62.9	76	55.2	0	0	---	0.00	30.027 

CoCoRaHS
IN-AL-39
A2 Web Hosting
Creative Commons License
GoDaddy
search engine by freefind advanced

loaded 2018-11-16 23:23:11 • last modified 2010-11-18 10:43:29
Privacy PolicyDisclaimer
• wx.awcolley.com is powered by PmWiki v.2002016 •
• all content (unless otherwise noted) © 2018 A W Colley